sensor_id;sensor_type;location;lat;lon;timestamp;pressure;altitude;pressure_sealevel;temperature;humidity
16580;BME280;8402;51.466;6.806;2022-08-01T00:01:15;101288.34;;;22.33;89.84
16580;BME280;8402;51.466;6.806;2022-08-01T00:03:43;101297.03;;;22.35;90.48
16580;BME280;8402;51.466;6.806;2022-08-01T00:06:11;101296.25;;;22.35;90.28
16580;BME280;8402;51.466;6.806;2022-08-01T00:08:39;101293.13;;;22.40;90.18
16580;BME280;8402;51.466;6.806;2022-08-01T00:11:07;101282.13;;;22.43;89.79
16580;BME280;8402;51.466;6.806;2022-08-01T00:13:37;101289.25;;;22.48;89.87
16580;BME280;8402;51.466;6.806;2022-08-01T00:16:05;101286.50;;;22.48;89.88
16580;BME280;8402;51.466;6.806;2022-08-01T00:18:33;101286.50;;;22.48;89.83
16580;BME280;8402;51.466;6.806;2022-08-01T00:21:02;101294.00;;;22.47;89.56
16580;BME280;8402;51.466;6.806;2022-08-01T00:23:30;101293.25;;;22.50;89.70
16580;BME280;8402;51.466;6.806;2022-08-01T00:25:58;101288.47;;;22.47;89.74
16580;BME280;8402;51.466;6.806;2022-08-01T00:28:27;101292.84;;;22.52;89.82
16580;BME280;8402;51.466;6.806;2022-08-01T00:30:56;101289.69;;;22.53;89.58
16580;BME280;8402;51.466;6.806;2022-08-01T00:33:24;101288.53;;;22.55;89.58
16580;BME280;8402;51.466;6.806;2022-08-01T00:35:52;101294.09;;;22.58;89.46
16580;BME280;8402;51.466;6.806;2022-08-01T00:38:20;101297.22;;;22.57;89.30
16580;BME280;8402;51.466;6.806;2022-08-01T00:40:48;101282.53;;;22.49;89.34
16580;BME280;8402;51.466;6.806;2022-08-01T00:43:16;101284.50;;;22.45;89.63
16580;BME280;8402;51.466;6.806;2022-08-01T00:45:44;101287.59;;;22.40;89.60
16580;BME280;8402;51.466;6.806;2022-08-01T00:48:14;101296.69;;;22.37;89.74
16580;BME280;8402;51.466;6.806;2022-08-01T00:50:42;101288.31;;;22.30;90.02
16580;BME280;8402;51.466;6.806;2022-08-01T00:53:10;101284.38;;;22.31;89.81
16580;BME280;8402;51.466;6.806;2022-08-01T00:55:44;101289.06;;;22.27;89.68
16580;BME280;8402;51.466;6.806;2022-08-01T00:58:13;101285.88;;;22.24;89.50
16580;BME280;8402;51.466;6.806;2022-08-01T01:00:43;101285.88;;;22.24;89.56
16580;BME280;8402;51.466;6.806;2022-08-01T01:03:22;101278.78;;;22.23;89.58
16580;BME280;8402;51.466;6.806;2022-08-01T01:06:25;101277.13;;;22.15;89.66
16580;BME280;8402;51.466;6.806;2022-08-01T01:09:02;101273.91;;;22.13;89.79
16580;BME280;8402;51.466;6.806;2022-08-01T01:11:39;101271.13;;;22.10;89.97
16580;BME280;8402;51.466;6.806;2022-08-01T01:14:18;101281.69;;;22.04;90.21
16580;BME280;8402;51.466;6.806;2022-08-01T01:16:49;101280.53;;;22.05;90.33
16580;BME280;8402;51.466;6.806;2022-08-01T01:19:23;101281.81;;;22.11;90.10
16580;BME280;8402;51.466;6.806;2022-08-01T01:22:19;101285.78;;;22.14;90.31
16580;BME280;8402;51.466;6.806;2022-08-01T01:25:04;101283.47;;;22.19;89.91
16580;BME280;8402;51.466;6.806;2022-08-01T01:27:51;101279.91;;;22.19;90.42
16580;BME280;8402;51.466;6.806;2022-08-01T01:30:28;101285.81;;;22.17;90.08
16580;BME280;8402;51.466;6.806;2022-08-01T01:32:59;101284.22;;;22.16;90.20
16580;BME280;8402;51.466;6.806;2022-08-01T01:35:32;101293.69;;;22.15;90.38
16580;BME280;8402;51.466;6.806;2022-08-01T01:38:07;101292.13;;;22.18;90.25
16580;BME280;8402;51.466;6.806;2022-08-01T01:40:40;101290.56;;;22.20;90.00
16580;BME280;8402;51.466;6.806;2022-08-01T01:43:11;101289.84;;;22.23;90.23
16580;BME280;8402;51.466;6.806;2022-08-01T01:45:41;101295.34;;;22.23;90.01
16580;BME280;8402;51.466;6.806;2022-08-01T01:48:13;101293.00;;;22.25;89.97
16580;BME280;8402;51.466;6.806;2022-08-01T01:50:42;101300.03;;;22.19;89.83
16580;BME280;8402;51.466;6.806;2022-08-01T01:53:14;101298.47;;;22.18;90.01
16580;BME280;8402;51.466;6.806;2022-08-01T01:55:45;101292.84;;;22.11;89.91
16580;BME280;8402;51.466;6.806;2022-08-01T01:58:16;101295.94;;;22.06;90.40
16580;BME280;8402;51.466;6.806;2022-08-01T02:00:48;101299.88;;;22.05;90.32
16580;BME280;8402;51.466;6.806;2022-08-01T02:03:18;101296.69;;;22.03;90.72
16580;BME280;8402;51.466;6.806;2022-08-01T02:05:47;101292.75;;;22.04;90.69
16580;BME280;8402;51.466;6.806;2022-08-01T02:08:17;101288.41;;;22.03;90.38
16580;BME280;8402;51.466;6.806;2022-08-01T02:10:46;101292.72;;;22.01;90.53
16580;BME280;8402;51.466;6.806;2022-08-01T02:13:28;101291.88;;;21.96;90.70
16580;BME280;8402;51.466;6.806;2022-08-01T02:15:58;101288.28;;;21.92;90.93
16580;BME280;8402;51.466;6.806;2022-08-01T02:18:26;101285.50;;;21.89;91.38
16580;BME280;8402;51.466;6.806;2022-08-01T02:20:55;101285.50;;;21.89;91.18
16580;BME280;8402;51.466;6.806;2022-08-01T02:23:28;101288.66;;;21.91;91.04
16580;BME280;8402;51.466;6.806;2022-08-01T02:26:00;101285.50;;;21.89;91.13
16580;BME280;8402;51.466;6.806;2022-08-01T02:28:41;101279.88;;;21.82;91.58
16580;BME280;8402;51.466;6.806;2022-08-01T02:31:14;101281.47;;;21.83;91.56
16580;BME280;8402;51.466;6.806;2022-08-01T02:33:52;101280.69;;;21.82;92.02
16580;BME280;8402;51.466;6.806;2022-08-01T02:36:24;101283.09;;;21.87;91.59
16580;BME280;8402;51.466;6.806;2022-08-01T02:39:00;101278.38;;;21.88;91.69
16580;BME280;8402;51.466;6.806;2022-08-01T02:41:30;101276.03;;;21.90;91.92
16580;BME280;8402;51.466;6.806;2022-08-01T02:44:02;101272.88;;;21.91;91.64
16580;BME280;8402;51.466;6.806;2022-08-01T02:46:35;101283.22;;;21.98;91.55
16580;BME280;8402;51.466;6.806;2022-08-01T02:49:07;101282.03;;;21.99;91.48
16580;BME280;8402;51.466;6.806;2022-08-01T02:51:36;101280.13;;;22.03;91.44
16580;BME280;8402;51.466;6.806;2022-08-01T02:54:07;101281.69;;;22.04;91.26
16580;BME280;8402;51.466;6.806;2022-08-01T02:56:35;101281.41;;;22.09;91.49
16580;BME280;8402;51.466;6.806;2022-08-01T02:59:06;101283.38;;;22.12;91.35
16580;BME280;8402;51.466;6.806;2022-08-01T03:01:40;101281.81;;;22.11;91.40
16580;BME280;8402;51.466;6.806;2022-08-01T03:04:10;101283.38;;;22.12;91.13
16580;BME280;8402;51.466;6.806;2022-08-01T03:06:38;101282.66;;;22.15;91.30
16580;BME280;8402;51.466;6.806;2022-08-01T03:09:11;101279.44;;;22.13;91.14
16580;BME280;8402;51.466;6.806;2022-08-01T03:11:43;101278.69;;;22.16;91.44
16580;BME280;8402;51.466;6.806;2022-08-01T03:14:12;101284.63;;;22.18;90.96
16580;BME280;8402;51.466;6.806;2022-08-01T03:16:44;101287.38;;;22.15;90.89
16580;BME280;8402;51.466;6.806;2022-08-01T03:19:14;101297.22;;;22.12;90.83
16580;BME280;8402;51.466;6.806;2022-08-01T03:21:44;101288.50;;;22.10;91.27
16580;BME280;8402;51.466;6.806;2022-08-01T03:24:13;101290.00;;;22.04;91.07
16580;BME280;8402;51.466;6.806;2022-08-01T03:26:43;101293.09;;;21.99;91.86
16580;BME280;8402;51.466;6.806;2022-08-01T03:29:15;101295.84;;;21.99;91.53
16580;BME280;8402;51.466;6.806;2022-08-01T03:31:47;101294.66;;;22.00;91.73
16580;BME280;8402;51.466;6.806;2022-08-01T03:34:17;101295.06;;;21.98;91.88
16580;BME280;8402;51.466;6.806;2022-08-01T03:36:49;101295.44;;;21.97;91.76
16580;BME280;8402;51.466;6.806;2022-08-01T03:39:22;101299.78;;;21.98;91.67
16580;BME280;8402;51.466;6.806;2022-08-01T03:41:57;101299.78;;;21.98;91.76
16580;BME280;8402;51.466;6.806;2022-08-01T03:44:27;101297.03;;;21.98;92.08
16580;BME280;8402;51.466;6.806;2022-08-01T03:47:05;101295.84;;;21.99;91.74
16580;BME280;8402;51.466;6.806;2022-08-01T03:49:37;101299.06;;;22.01;91.51
16580;BME280;8402;51.466;6.806;2022-08-01T03:52:08;101299.47;;;22.03;91.38
16580;BME280;8402;51.466;6.806;2022-08-01T03:54:41;101299.06;;;22.05;91.28
16580;BME280;8402;51.466;6.806;2022-08-01T03:57:12;101297.50;;;22.07;91.11
16580;BME280;8402;51.466;6.806;2022-08-01T04:00:01;101284.16;;;22.09;91.04
16580;BME280;8402;51.466;6.806;2022-08-01T04:02:34;101288.19;;;22.15;90.63
16580;BME280;8402;51.466;6.806;2022-08-01T04:05:04;101291.75;;;22.19;90.03
16580;BME280;8402;51.466;6.806;2022-08-01T04:07:33;101295.34;;;22.23;90.14
16580;BME280;8402;51.466;6.806;2022-08-01T04:10:03;101292.97;;;22.22;90.04
16580;BME280;8402;51.466;6.806;2022-08-01T04:12:31;101294.50;;;22.19;90.71
16580;BME280;8402;51.466;6.806;2022-08-01T04:15:00;101296.09;;;22.17;90.06
16580;BME280;8402;51.466;6.806;2022-08-01T04:17:28;101288.19;;;22.19;90.41
16580;BME280;8402;51.466;6.806;2022-08-01T04:19:57;101291.41;;;22.24;90.18
16580;BME280;8402;51.466;6.806;2022-08-01T04:22:26;101297.75;;;22.29;89.69
16580;BME280;8402;51.466;6.806;2022-08-01T04:24:55;101300.19;;;22.34;89.52
16580;BME280;8402;51.466;6.806;2022-08-01T04:27:28;101316.03;;;22.37;89.16
16580;BME280;8402;51.466;6.806;2022-08-01T04:30:17;101307.31;;;22.35;89.09
16580;BME280;8402;51.466;6.806;2022-08-01T04:32:47;101319.13;;;22.32;89.22
16580;BME280;8402;51.466;6.806;2022-08-01T04:35:19;101331.69;;;22.25;89.51
16580;BME280;8402;51.466;6.806;2022-08-01T04:38:08;101317.00;;;22.18;89.50
16580;BME280;8402;51.466;6.806;2022-08-01T04:40:40;101318.19;;;22.17;89.59
16580;BME280;8402;51.466;6.806;2022-08-01T04:43:09;101318.13;;;22.13;89.98
16580;BME280;8402;51.466;6.806;2022-08-01T04:45:37;101326.06;;;22.15;89.93
16580;BME280;8402;51.466;6.806;2022-08-01T04:48:06;101329.19;;;22.13;89.92
16580;BME280;8402;51.466;6.806;2022-08-01T04:50:36;101330.00;;;22.14;89.59
16580;BME280;8402;51.466;6.806;2022-08-01T04:53:05;101338.28;;;22.14;89.64
16580;BME280;8402;51.466;6.806;2022-08-01T04:55:32;101328.78;;;22.11;89.72
16580;BME280;8402;51.466;6.806;2022-08-01T04:58:02;101330.25;;;22.05;89.91
16580;BME280;8402;51.466;6.806;2022-08-01T05:00:30;101329.47;;;22.05;90.04
16580;BME280;8402;51.466;6.806;2022-08-01T05:03:00;101340.13;;;22.06;89.90
16580;BME280;8402;51.466;6.806;2022-08-01T05:05:28;101342.91;;;22.06;90.02
16580;BME280;8402;51.466;6.806;2022-08-01T05:07:58;101345.66;;;22.06;90.21
16580;BME280;8402;51.466;6.806;2022-08-01T05:10:26;101355.13;;;22.05;90.37
16580;BME280;8402;51.466;6.806;2022-08-01T05:12:54;101351.19;;;22.06;90.42
16580;BME280;8402;51.466;6.806;2022-08-01T05:15:22;101346.94;;;22.09;90.29
16580;BME280;8402;51.466;6.806;2022-08-01T05:17:50;101359.97;;;22.08;90.82
16580;BME280;8402;51.466;6.806;2022-08-01T05:20:19;101355.53;;;22.07;90.41
16580;BME280;8402;51.466;6.806;2022-08-01T05:22:46;101360.66;;;22.05;90.61
16580;BME280;8402;51.466;6.806;2022-08-01T05:25:16;101358.31;;;22.07;90.48
16580;BME280;8402;51.466;6.806;2022-08-01T05:27:46;101364.31;;;22.09;90.47
16580;BME280;8402;51.466;6.806;2022-08-01T05:30:16;101370.25;;;22.11;90.17
16580;BME280;8402;51.466;6.806;2022-08-01T05:32:44;101370.13;;;22.04;90.09
16580;BME280;8402;51.466;6.806;2022-08-01T05:35:12;101370.91;;;22.01;90.21
16580;BME280;8402;51.466;6.806;2022-08-01T05:37:40;101378.00;;;22.02;90.21
16580;BME280;8402;51.466;6.806;2022-08-01T05:40:09;101380.00;;;22.05;90.10
16580;BME280;8402;51.466;6.806;2022-08-01T05:42:38;101380.41;;;22.07;90.21
16580;BME280;8402;51.466;6.806;2022-08-01T05:45:06;101370.91;;;22.01;89.94
16580;BME280;8402;51.466;6.806;2022-08-01T05:47:34;101374.88;;;22.04;90.23
16580;BME280;8402;51.466;6.806;2022-08-01T05:50:08;101371.00;;;22.08;90.13
16580;BME280;8402;51.466;6.806;2022-08-01T05:52:36;101367.78;;;22.06;89.65
16580;BME280;8402;51.466;6.806;2022-08-01T05:55:06;101381.25;;;22.08;89.56
16580;BME280;8402;51.466;6.806;2022-08-01T05:57:34;101378.81;;;22.03;89.39
16580;BME280;8402;51.466;6.806;2022-08-01T06:00:07;101377.22;;;22.02;89.51
16580;BME280;8402;51.466;6.806;2022-08-01T06:02:40;101378.81;;;22.03;89.43
16580;BME280;8402;51.466;6.806;2022-08-01T06:05:08;101376.84;;;22.07;89.36
16580;BME280;8402;51.466;6.806;2022-08-01T06:07:39;101379.59;;;22.03;89.09
16580;BME280;8402;51.466;6.806;2022-08-01T06:10:08;101376.41;;;22.01;89.25
16580;BME280;8402;51.466;6.806;2022-08-01T06:12:37;101382.78;;;22.05;89.02
16580;BME280;8402;51.466;6.806;2022-08-01T06:15:07;101380.41;;;22.07;88.49
16580;BME280;8402;51.466;6.806;2022-08-01T06:17:36;101391.47;;;22.07;88.86
16580;BME280;8402;51.466;6.806;2022-08-01T06:20:04;101381.28;;;22.11;88.68
16580;BME280;8402;51.466;6.806;2022-08-01T06:22:33;101376.19;;;22.13;88.61
16580;BME280;8402;51.466;6.806;2022-08-01T06:25:01;101377.41;;;22.16;88.90
16580;BME280;8402;51.466;6.806;2022-08-01T06:27:29;101378.22;;;22.16;88.71
16580;BME280;8402;51.466;6.806;2022-08-01T06:29:57;101369.16;;;22.19;88.85
16580;BME280;8402;51.466;6.806;2022-08-01T06:32:27;101370.00;;;22.23;88.78
16580;BME280;8402;51.466;6.806;2022-08-01T06:34:56;101374.00;;;22.30;88.45
16580;BME280;8402;51.466;6.806;2022-08-01T06:37:28;101376.09;;;22.40;88.64
16580;BME280;8402;51.466;6.806;2022-08-01T06:40:00;101373.13;;;22.59;88.68
16580;BME280;8402;51.466;6.806;2022-08-01T06:42:28;101378.72;;;22.66;87.59
16580;BME280;8402;51.466;6.806;2022-08-01T06:44:58;101374.84;;;22.74;87.22
16580;BME280;8402;51.466;6.806;2022-08-01T06:47:25;101379.66;;;22.81;87.03
16580;BME280;8402;51.466;6.806;2022-08-01T06:49:55;101378.06;;;22.84;86.14
16580;BME280;8402;51.466;6.806;2022-08-01T06:52:23;101380.44;;;22.82;85.92
16580;BME280;8402;51.466;6.806;2022-08-01T06:54:51;101374.25;;;22.95;86.33
16580;BME280;8402;51.466;6.806;2022-08-01T06:57:20;101364.91;;;23.14;85.90
16580;BME280;8402;51.466;6.806;2022-08-01T06:59:48;101373.78;;;23.38;86.17
16580;BME280;8402;51.466;6.806;2022-08-01T07:02:20;101367.59;;;23.62;86.01
16580;BME280;8402;51.466;6.806;2022-08-01T07:04:48;101366.47;;;23.77;84.98
16580;BME280;8402;51.466;6.806;2022-08-01T07:07:17;101367.03;;;24.08;84.66
16580;BME280;8402;51.466;6.806;2022-08-01T07:09:45;101375.75;;;24.28;83.20
16580;BME280;8402;51.466;6.806;2022-08-01T07:12:13;101373.47;;;24.48;82.18
16580;BME280;8402;51.466;6.806;2022-08-01T07:14:41;101368.31;;;24.39;80.55
16580;BME280;8402;51.466;6.806;2022-08-01T07:17:09;101381.34;;;24.31;80.43
16580;BME280;8402;51.466;6.806;2022-08-01T07:19:37;101378.53;;;24.24;80.68
16580;BME280;8402;51.466;6.806;2022-08-01T07:22:05;101380.91;;;24.19;80.94
16580;BME280;8402;51.466;6.806;2022-08-01T07:24:37;101384.84;;;24.10;80.10
16580;BME280;8402;51.466;6.806;2022-08-01T07:27:11;101384.41;;;24.05;80.48
16580;BME280;8402;51.466;6.806;2022-08-01T07:29:51;101380.84;;;24.01;80.19
16580;BME280;8402;51.466;6.806;2022-08-01T07:32:19;101376.16;;;24.15;80.52
16580;BME280;8402;51.466;6.806;2022-08-01T07:34:47;101373.44;;;24.33;80.60
16580;BME280;8402;51.466;6.806;2022-08-01T07:37:15;101377.44;;;24.57;79.78
16580;BME280;8402;51.466;6.806;2022-08-01T07:40:05;101382.22;;;24.71;78.72
16580;BME280;8402;51.466;6.806;2022-08-01T07:42:33;101374.28;;;24.98;79.12
16580;BME280;8402;51.466;6.806;2022-08-01T07:45:02;101383.84;;;25.04;78.86
16580;BME280;8402;51.466;6.806;2022-08-01T07:47:30;101390.16;;;24.83;77.34
16580;BME280;8402;51.466;6.806;2022-08-01T07:50:02;101388.16;;;24.66;77.52
16580;BME280;8402;51.466;6.806;2022-08-01T07:52:31;101394.09;;;24.54;77.86
16580;BME280;8402;51.466;6.806;2022-08-01T07:54:58;101394.88;;;24.54;78.35
16580;BME280;8402;51.466;6.806;2022-08-01T07:57:28;101394.91;;;24.65;78.41
16580;BME280;8402;51.466;6.806;2022-08-01T07:59:56;101395.72;;;24.90;78.69
16580;BME280;8402;51.466;6.806;2022-08-01T08:02:23;101383.03;;;25.32;77.46
16580;BME280;8402;51.466;6.806;2022-08-01T08:04:52;101387.75;;;25.42;76.00
16580;BME280;8402;51.466;6.806;2022-08-01T08:07:20;101402.84;;;25.27;75.70
16580;BME280;8402;51.466;6.806;2022-08-01T08:09:47;101405.25;;;25.11;75.86
16580;BME280;8402;51.466;6.806;2022-08-01T08:12:16;101406.03;;;25.01;75.81
16580;BME280;8402;51.466;6.806;2022-08-01T08:14:56;101408.00;;;24.96;75.72
16580;BME280;8402;51.466;6.806;2022-08-01T08:17:27;101409.97;;;24.92;75.60
16580;BME280;8402;51.466;6.806;2022-08-01T08:20:02;101407.59;;;24.91;75.23
16580;BME280;8402;51.466;6.806;2022-08-01T08:22:34;101408.81;;;24.86;75.40
16580;BME280;8402;51.466;6.806;2022-08-01T08:25:02;101412.75;;;24.92;75.53
16580;BME280;8402;51.466;6.806;2022-08-01T08:27:33;101414.41;;;25.15;75.34
16580;BME280;8402;51.466;6.806;2022-08-01T08:30:06;101414.41;;;25.08;74.01
16580;BME280;8402;51.466;6.806;2022-08-01T08:32:35;101415.56;;;25.28;73.37
16580;BME280;8402;51.466;6.806;2022-08-01T08:35:04;101411.09;;;25.70;72.82
16580;BME280;8402;51.466;6.806;2022-08-01T08:37:33;101408.19;;;26.13;70.51
16580;BME280;8402;51.466;6.806;2022-08-01T08:40:12;101409.59;;;26.49;69.78
16580;BME280;8402;51.466;6.806;2022-08-01T08:42:42;101424.31;;;26.53;70.09
16580;BME280;8402;51.466;6.806;2022-08-01T08:45:14;101418.41;;;26.37;68.88
16580;BME280;8402;51.466;6.806;2022-08-01T08:47:43;101423.94;;;26.48;68.27
16580;BME280;8402;51.466;6.806;2022-08-01T08:50:13;101424.97;;;26.72;68.15
16580;BME280;8402;51.466;6.806;2022-08-01T08:52:43;101423.69;;;26.87;66.50
16580;BME280;8402;51.466;6.806;2022-08-01T08:55:12;101420.28;;;27.13;66.92
16580;BME280;8402;51.466;6.806;2022-08-01T08:57:43;101416.16;;;27.29;65.44
16580;BME280;8402;51.466;6.806;2022-08-01T09:00:14;101411.81;;;27.28;64.72
16580;BME280;8402;51.466;6.806;2022-08-01T09:02:43;101413.25;;;27.43;65.77
16580;BME280;8402;51.466;6.806;2022-08-01T09:05:11;101414.31;;;27.56;66.01
16580;BME280;8402;51.466;6.806;2022-08-01T09:07:45;101421.31;;;27.75;64.65
16580;BME280;8402;51.466;6.806;2022-08-01T09:10:13;101416.94;;;28.08;64.37
16580;BME280;8402;51.466;6.806;2022-08-01T09:13:03;101417.81;;;28.02;60.84
16580;BME280;8402;51.466;6.806;2022-08-01T09:15:40;101417.94;;;27.91;61.89
16580;BME280;8402;51.466;6.806;2022-08-01T09:18:08;101424.88;;;28.10;63.42
16580;BME280;8402;51.466;6.806;2022-08-01T09:20:36;101422.16;;;28.37;61.63
16580;BME280;8402;51.466;6.806;2022-08-01T09:23:04;101416.59;;;28.37;60.71
16580;BME280;8402;51.466;6.806;2022-08-01T09:25:50;101422.53;;;28.05;59.08
16580;BME280;8402;51.466;6.806;2022-08-01T09:28:27;101425.84;;;27.96;60.44
16580;BME280;8402;51.466;6.806;2022-08-01T09:30:57;101432.03;;;28.11;61.67
16580;BME280;8402;51.466;6.806;2022-08-01T09:33:25;101435.44;;;27.91;61.34
16580;BME280;8402;51.466;6.806;2022-08-01T09:35:55;101441.72;;;27.65;61.46
16580;BME280;8402;51.466;6.806;2022-08-01T09:38:24;101437.06;;;27.51;62.52
16580;BME280;8402;51.466;6.806;2022-08-01T09:40:55;101433.09;;;27.52;62.65
16580;BME280;8402;51.466;6.806;2022-08-01T09:43:26;101442.06;;;27.70;62.14
16580;BME280;8402;51.466;6.806;2022-08-01T09:45:55;101443.03;;;27.91;61.70
16580;BME280;8402;51.466;6.806;2022-08-01T09:48:26;101441.00;;;28.25;61.45
16580;BME280;8402;51.466;6.806;2022-08-01T09:50:57;101450.66;;;28.51;60.08
16580;BME280;8402;51.466;6.806;2022-08-01T09:53:46;101441.97;;;28.46;58.98
16580;BME280;8402;51.466;6.806;2022-08-01T09:56:19;101441.88;;;28.53;60.99
16580;BME280;8402;51.466;6.806;2022-08-01T09:58:52;101448.47;;;28.36;59.33
16580;BME280;8402;51.466;6.806;2022-08-01T10:01:37;101437.38;;;28.32;60.54
16580;BME280;8402;51.466;6.806;2022-08-01T10:04:13;101434.22;;;28.27;58.92
16580;BME280;8402;51.466;6.806;2022-08-01T10:06:44;101450.72;;;28.14;59.94
16580;BME280;8402;51.466;6.806;2022-08-01T10:09:13;101452.91;;;27.99;58.69
16580;BME280;8402;51.466;6.806;2022-08-01T10:11:42;101448.31;;;27.82;58.80
16580;BME280;8402;51.466;6.806;2022-08-01T10:14:11;101449.22;;;27.72;59.85
16580;BME280;8402;51.466;6.806;2022-08-01T10:16:44;101447.09;;;27.45;59.77
16580;BME280;8402;51.466;6.806;2022-08-01T10:19:22;101446.44;;;27.30;59.10
16580;BME280;8402;51.466;6.806;2022-08-01T10:21:55;101446.44;;;27.27;60.35
16580;BME280;8402;51.466;6.806;2022-08-01T10:24:27;101442.38;;;27.35;61.31
16580;BME280;8402;51.466;6.806;2022-08-01T10:26:59;101450.66;;;27.46;61.33
16580;BME280;8402;51.466;6.806;2022-08-01T10:29:37;101447.22;;;27.31;61.35
16580;BME280;8402;51.466;6.806;2022-08-01T10:32:13;101442.81;;;27.75;61.34
16580;BME280;8402;51.466;6.806;2022-08-01T10:34:42;101446.59;;;28.25;59.39
16580;BME280;8402;51.466;6.806;2022-08-01T10:37:12;101447.25;;;28.67;58.65
16580;BME280;8402;51.466;6.806;2022-08-01T10:39:41;101449.31;;;29.14;57.78
16580;BME280;8402;51.466;6.806;2022-08-01T10:42:11;101452.28;;;29.50;56.02
16580;BME280;8402;51.466;6.806;2022-08-01T10:44:41;101446.88;;;29.39;56.79
16580;BME280;8402;51.466;6.806;2022-08-01T10:47:17;101452.19;;;29.10;56.58
16580;BME280;8402;51.466;6.806;2022-08-01T10:50:00;101453.66;;;28.64;56.54
16580;BME280;8402;51.466;6.806;2022-08-01T10:52:30;101457.31;;;28.27;57.65
16580;BME280;8402;51.466;6.806;2022-08-01T10:55:06;101464.72;;;28.10;58.18
16580;BME280;8402;51.466;6.806;2022-08-01T10:57:42;101455.38;;;27.93;58.34
16580;BME280;8402;51.466;6.806;2022-08-01T11:00:19;101456.97;;;27.91;59.13
16580;BME280;8402;51.466;6.806;2022-08-01T11:02:57;101455.41;;;27.90;58.73
16580;BME280;8402;51.466;6.806;2022-08-01T11:05:31;101452.59;;;27.90;58.67
16580;BME280;8402;51.466;6.806;2022-08-01T11:08:03;101454.56;;;27.93;59.32
16580;BME280;8402;51.466;6.806;2022-08-01T11:10:36;101450.75;;;27.80;59.25
16580;BME280;8402;51.466;6.806;2022-08-01T11:13:05;101450.16;;;27.95;58.99
16580;BME280;8402;51.466;6.806;2022-08-01T11:15:35;101445.66;;;28.05;59.99
16580;BME280;8402;51.466;6.806;2022-08-01T11:18:30;101450.50;;;28.01;58.20
16580;BME280;8402;51.466;6.806;2022-08-01T11:21:04;101452.09;;;28.33;59.44
16580;BME280;8402;51.466;6.806;2022-08-01T11:23:52;101450.97;;;28.27;57.87
16580;BME280;8402;51.466;6.806;2022-08-01T11:26:23;101446.56;;;28.29;58.28
16580;BME280;8402;51.466;6.806;2022-08-01T11:29:16;101449.47;;;28.18;57.55
16580;BME280;8402;51.466;6.806;2022-08-01T11:31:50;101450.53;;;28.32;58.69
16580;BME280;8402;51.466;6.806;2022-08-01T11:34:19;101452.38;;;28.42;58.50
16580;BME280;8402;51.466;6.806;2022-08-01T11:36:49;101449.34;;;28.29;58.08
16580;BME280;8402;51.466;6.806;2022-08-01T11:39:25;101447.69;;;28.35;57.94
16580;BME280;8402;51.466;6.806;2022-08-01T11:41:55;101436.28;;;28.53;57.43
16580;BME280;8402;51.466;6.806;2022-08-01T11:44:49;101443.22;;;28.68;56.78
16580;BME280;8402;51.466;6.806;2022-08-01T11:47:18;101430.84;;;28.69;55.38
16580;BME280;8402;51.466;6.806;2022-08-01T11:49:48;101434.63;;;28.83;55.23
16580;BME280;8402;51.466;6.806;2022-08-01T11:52:27;101439.78;;;28.84;53.82
16580;BME280;8402;51.466;6.806;2022-08-01T11:54:57;101442.06;;;28.93;54.50
16580;BME280;8402;51.466;6.806;2022-08-01T11:57:27;101431.28;;;29.18;54.92
16580;BME280;8402;51.466;6.806;2022-08-01T12:00:05;101436.50;;;29.40;54.73
16580;BME280;8402;51.466;6.806;2022-08-01T12:02:42;101442.44;;;29.42;55.95
16580;BME280;8402;51.466;6.806;2022-08-01T12:05:13;101438.81;;;29.45;55.70
16580;BME280;8402;51.466;6.806;2022-08-01T12:07:49;101451.56;;;29.46;54.57
16580;BME280;8402;51.466;6.806;2022-08-01T12:10:20;101449.88;;;29.52;55.90
16580;BME280;8402;51.466;6.806;2022-08-01T12:12:52;101446.94;;;29.36;53.73
16580;BME280;8402;51.466;6.806;2022-08-01T12:15:22;101447.81;;;29.32;55.07
16580;BME280;8402;51.466;6.806;2022-08-01T12:17:55;101453.53;;;29.25;53.86
16580;BME280;8402;51.466;6.806;2022-08-01T12:20:27;101451.88;;;29.28;55.03
16580;BME280;8402;51.466;6.806;2022-08-01T12:22:59;101452.50;;;29.16;54.42
16580;BME280;8402;51.466;6.806;2022-08-01T12:25:28;101450.41;;;29.20;54.83
16580;BME280;8402;51.466;6.806;2022-08-01T12:28:00;101443.78;;;29.33;54.63
16580;BME280;8402;51.466;6.806;2022-08-01T12:30:28;101442.75;;;29.47;53.84
16580;BME280;8402;51.466;6.806;2022-08-01T12:33:02;101448.41;;;29.67;53.94
16580;BME280;8402;51.466;6.806;2022-08-01T12:35:32;101441.59;;;29.68;52.93
16580;BME280;8402;51.466;6.806;2022-08-01T12:38:03;101450.25;;;29.30;52.38
16580;BME280;8402;51.466;6.806;2022-08-01T12:40:33;101447.81;;;29.09;53.00
16580;BME280;8402;51.466;6.806;2022-08-01T12:43:03;101439.66;;;28.95;52.88
16580;BME280;8402;51.466;6.806;2022-08-01T12:45:34;101446.47;;;28.94;53.42
16580;BME280;8402;51.466;6.806;2022-08-01T12:48:07;101442.75;;;29.00;52.52
16580;BME280;8402;51.466;6.806;2022-08-01T12:50:41;101450.59;;;29.09;52.61
16580;BME280;8402;51.466;6.806;2022-08-01T12:53:11;101443.13;;;29.26;53.85
16580;BME280;8402;51.466;6.806;2022-08-01T12:55:46;101447.59;;;29.43;52.75
16580;BME280;8402;51.466;6.806;2022-08-01T12:58:31;101447.53;;;29.47;52.60
16580;BME280;8402;51.466;6.806;2022-08-01T13:01:04;101450.69;;;29.49;51.13
16580;BME280;8402;51.466;6.806;2022-08-01T13:03:32;101453.03;;;29.30;52.92
16580;BME280;8402;51.466;6.806;2022-08-01T13:06:00;101460.78;;;28.96;53.27
16580;BME280;8402;51.466;6.806;2022-08-01T13:08:32;101461.34;;;28.57;53.46
16580;BME280;8402;51.466;6.806;2022-08-01T13:11:00;101454.06;;;28.36;54.54
16580;BME280;8402;51.466;6.806;2022-08-01T13:13:38;101450.88;;;28.37;53.17
16580;BME280;8402;51.466;6.806;2022-08-01T13:16:07;101453.75;;;28.57;53.32
16580;BME280;8402;51.466;6.806;2022-08-01T13:18:56;101458.78;;;28.69;52.34
16580;BME280;8402;51.466;6.806;2022-08-01T13:21:26;101451.28;;;28.90;53.05
16580;BME280;8402;51.466;6.806;2022-08-01T13:24:03;101452.50;;;28.89;51.73